sensor_id;sensor_type;location;lat;lon;timestamp;P1;durP1;ratioP1;P2;durP2;ratioP2
23300;SDS011;11819;51.394;12.340;2022-10-16T00:01:34;4.70;;;2.20;;
23300;SDS011;11819;51.394;12.340;2022-10-16T00:04:01;3.97;;;2.28;;
23300;SDS011;11819;51.394;12.340;2022-10-16T00:06:28;5.95;;;2.42;;
23300;SDS011;11819;51.394;12.340;2022-10-16T00:08:56;5.20;;;2.15;;
23300;SDS011;11819;51.394;12.340;2022-10-16T00:11:40;2.95;;;2.13;;
23300;SDS011;11819;51.394;12.340;2022-10-16T00:14:07;4.50;;;2.20;;
23300;SDS011;11819;51.394;12.340;2022-10-16T00:16:36;3.83;;;2.38;;
23300;SDS011;11819;51.394;12.340;2022-10-16T00:19:02;2.45;;;2.00;;
23300;SDS011;11819;51.394;12.340;2022-10-16T00:21:29;2.78;;;2.10;;
23300;SDS011;11819;51.394;12.340;2022-10-16T00:23:57;4.95;;;2.15;;
23300;SDS011;11819;51.394;12.340;2022-10-16T00:26:28;3.85;;;2.30;;
23300;SDS011;11819;51.394;12.340;2022-10-16T00:28:55;5.72;;;2.30;;
23300;SDS011;11819;51.394;12.340;2022-10-16T00:31:21;3.33;;;2.20;;
23300;SDS011;11819;51.394;12.340;2022-10-16T00:33:47;2.95;;;2.20;;
23300;SDS011;11819;51.394;12.340;2022-10-16T00:36:15;5.13;;;2.20;;
23300;SDS011;11819;51.394;12.340;2022-10-16T00:38:43;3.25;;;2.20;;
23300;SDS011;11819;51.394;12.340;2022-10-16T00:41:10;3.15;;;2.03;;
23300;SDS011;11819;51.394;12.340;2022-10-16T00:46:05;4.32;;;2.30;;
23300;SDS011;11819;51.394;12.340;2022-10-16T00:48:36;4.72;;;2.20;;
23300;SDS011;11819;51.394;12.340;2022-10-16T00:51:02;3.05;;;2.28;;
23300;SDS011;11819;51.394;12.340;2022-10-16T00:53:29;2.97;;;2.20;;
23300;SDS011;11819;51.394;12.340;2022-10-16T00:55:55;5.45;;;3.15;;
23300;SDS011;11819;51.394;12.340;2022-10-16T00:58:21;2.35;;;1.98;;
23300;SDS011;11819;51.394;12.340;2022-10-16T01:00:47;3.63;;;2.17;;
23300;SDS011;11819;51.394;12.340;2022-10-16T01:03:32;3.50;;;2.40;;
23300;SDS011;11819;51.394;12.340;2022-10-16T01:09:02;3.72;;;2.35;;
23300;SDS011;11819;51.394;12.340;2022-10-16T01:11:44;4.45;;;2.22;;
23300;SDS011;11819;51.394;12.340;2022-10-16T01:14:26;4.22;;;2.45;;
23300;SDS011;11819;51.394;12.340;2022-10-16T01:17:09;4.63;;;2.30;;
23300;SDS011;11819;51.394;12.340;2022-10-16T01:22:58;2.78;;;2.03;;
23300;SDS011;11819;51.394;12.340;2022-10-16T01:28:39;2.72;;;2.20;;
23300;SDS011;11819;51.394;12.340;2022-10-16T01:31:18;2.35;;;2.08;;
23300;SDS011;11819;51.394;12.340;2022-10-16T01:33:47;3.55;;;2.08;;
23300;SDS011;11819;51.394;12.340;2022-10-16T01:36:22;4.10;;;2.38;;
23300;SDS011;11819;51.394;12.340;2022-10-16T01:38:52;3.55;;;2.22;;
23300;SDS011;11819;51.394;12.340;2022-10-16T01:41:23;2.95;;;2.20;;
23300;SDS011;11819;51.394;12.340;2022-10-16T01:43:54;3.03;;;2.35;;
23300;SDS011;11819;51.394;12.340;2022-10-16T01:46:31;4.72;;;2.65;;
23300;SDS011;11819;51.394;12.340;2022-10-16T01:49:00;6.38;;;2.60;;
23300;SDS011;11819;51.394;12.340;2022-10-16T01:51:28;3.88;;;2.30;;
23300;SDS011;11819;51.394;12.340;2022-10-16T01:53:55;3.28;;;2.30;;
23300;SDS011;11819;51.394;12.340;2022-10-16T01:56:24;3.78;;;2.38;;
23300;SDS011;11819;51.394;12.340;2022-10-16T01:58:55;3.17;;;2.40;;
23300;SDS011;11819;51.394;12.340;2022-10-16T02:01:29;4.32;;;2.55;;
23300;SDS011;11819;51.394;12.340;2022-10-16T02:03:59;4.03;;;2.55;;
23300;SDS011;11819;51.394;12.340;2022-10-16T02:06:29;4.90;;;2.53;;
23300;SDS011;11819;51.394;12.340;2022-10-16T02:08:55;4.93;;;2.45;;
23300;SDS011;11819;51.394;12.340;2022-10-16T02:11:20;4.38;;;2.60;;
23300;SDS011;11819;51.394;12.340;2022-10-16T02:13:48;3.20;;;2.45;;
23300;SDS011;11819;51.394;12.340;2022-10-16T02:16:20;3.42;;;2.30;;
23300;SDS011;11819;51.394;12.340;2022-10-16T02:18:45;5.38;;;2.55;;
23300;SDS011;11819;51.394;12.340;2022-10-16T02:21:28;3.75;;;2.40;;
23300;SDS011;11819;51.394;12.340;2022-10-16T02:29:16;6.80;;;2.45;;
23300;SDS011;11819;51.394;12.340;2022-10-16T02:31:46;3.40;;;2.42;;
23300;SDS011;11819;51.394;12.340;2022-10-16T02:34:16;5.53;;;2.20;;
23300;SDS011;11819;51.394;12.340;2022-10-16T02:36:45;3.75;;;2.30;;
23300;SDS011;11819;51.394;12.340;2022-10-16T02:39:12;3.70;;;2.30;;
23300;SDS011;11819;51.394;12.340;2022-10-16T02:41:39;5.05;;;2.55;;
23300;SDS011;11819;51.394;12.340;2022-10-16T02:44:05;3.05;;;2.30;;
23300;SDS011;11819;51.394;12.340;2022-10-16T02:46:30;4.03;;;2.55;;
23300;SDS011;11819;51.394;12.340;2022-10-16T02:48:56;3.40;;;2.13;;
23300;SDS011;11819;51.394;12.340;2022-10-16T02:51:21;4.68;;;2.60;;
23300;SDS011;11819;51.394;12.340;2022-10-16T02:53:47;7.95;;;2.45;;
23300;SDS011;11819;51.394;12.340;2022-10-16T02:56:13;3.22;;;2.38;;
23300;SDS011;11819;51.394;12.340;2022-10-16T02:58:38;3.97;;;2.30;;
23300;SDS011;11819;51.394;12.340;2022-10-16T03:01:04;5.18;;;2.42;;
23300;SDS011;11819;51.394;12.340;2022-10-16T03:03:30;4.32;;;2.30;;
23300;SDS011;11819;51.394;12.340;2022-10-16T03:05:55;3.67;;;2.35;;
23300;SDS011;11819;51.394;12.340;2022-10-16T03:08:21;3.55;;;2.22;;
23300;SDS011;11819;51.394;12.340;2022-10-16T03:10:49;3.60;;;2.42;;
23300;SDS011;11819;51.394;12.340;2022-10-16T03:13:15;3.10;;;2.10;;
23300;SDS011;11819;51.394;12.340;2022-10-16T03:15:40;3.53;;;2.30;;
23300;SDS011;11819;51.394;12.340;2022-10-16T03:18:06;4.20;;;2.58;;
23300;SDS011;11819;51.394;12.340;2022-10-16T03:20:31;4.63;;;2.20;;
23300;SDS011;11819;51.394;12.340;2022-10-16T03:22:57;3.05;;;2.33;;
23300;SDS011;11819;51.394;12.340;2022-10-16T03:25:23;3.55;;;2.30;;
23300;SDS011;11819;51.394;12.340;2022-10-16T03:27:49;4.20;;;2.20;;
23300;SDS011;11819;51.394;12.340;2022-10-16T03:30:14;3.90;;;2.05;;
23300;SDS011;11819;51.394;12.340;2022-10-16T03:32:41;5.72;;;2.40;;
23300;SDS011;11819;51.394;12.340;2022-10-16T03:35:08;3.17;;;2.40;;
23300;SDS011;11819;51.394;12.340;2022-10-16T03:37:34;4.20;;;2.33;;
23300;SDS011;11819;51.394;12.340;2022-10-16T03:40:00;4.38;;;2.30;;
23300;SDS011;11819;51.394;12.340;2022-10-16T03:42:26;2.65;;;2.20;;
23300;SDS011;11819;51.394;12.340;2022-10-16T03:44:51;3.45;;;2.58;;
23300;SDS011;11819;51.394;12.340;2022-10-16T03:47:17;4.40;;;2.22;;
23300;SDS011;11819;51.394;12.340;2022-10-16T03:49:46;4.63;;;2.20;;
23300;SDS011;11819;51.394;12.340;2022-10-16T03:52:12;2.78;;;2.42;;
23300;SDS011;11819;51.394;12.340;2022-10-16T03:54:38;3.20;;;2.50;;
23300;SDS011;11819;51.394;12.340;2022-10-16T03:57:04;4.80;;;2.70;;
23300;SDS011;11819;51.394;12.340;2022-10-16T03:59:30;3.63;;;2.47;;
23300;SDS011;11819;51.394;12.340;2022-10-16T04:01:55;3.53;;;2.40;;
23300;SDS011;11819;51.394;12.340;2022-10-16T04:04:21;4.30;;;2.67;;
23300;SDS011;11819;51.394;12.340;2022-10-16T04:06:47;5.72;;;2.53;;
23300;SDS011;11819;51.394;12.340;2022-10-16T04:09:12;5.25;;;2.85;;
23300;SDS011;11819;51.394;12.340;2022-10-16T04:11:38;4.65;;;2.60;;
23300;SDS011;11819;51.394;12.340;2022-10-16T04:14:04;4.40;;;2.50;;
23300;SDS011;11819;51.394;12.340;2022-10-16T04:16:29;4.63;;;2.45;;
23300;SDS011;11819;51.394;12.340;2022-10-16T04:18:55;3.00;;;2.40;;
23300;SDS011;11819;51.394;12.340;2022-10-16T04:21:21;4.82;;;2.47;;
23300;SDS011;11819;51.394;12.340;2022-10-16T04:23:47;4.38;;;2.70;;
23300;SDS011;11819;51.394;12.340;2022-10-16T04:26:13;4.97;;;2.50;;
23300;SDS011;11819;51.394;12.340;2022-10-16T04:28:39;3.92;;;2.55;;
23300;SDS011;11819;51.394;12.340;2022-10-16T04:31:05;3.85;;;2.67;;
23300;SDS011;11819;51.394;12.340;2022-10-16T04:33:31;5.07;;;2.92;;
23300;SDS011;11819;51.394;12.340;2022-10-16T04:35:58;5.18;;;3.55;;
23300;SDS011;11819;51.394;12.340;2022-10-16T04:38:25;4.80;;;3.40;;
23300;SDS011;11819;51.394;12.340;2022-10-16T04:40:51;5.68;;;2.90;;
23300;SDS011;11819;51.394;12.340;2022-10-16T04:43:17;4.90;;;3.15;;
23300;SDS011;11819;51.394;12.340;2022-10-16T04:45:43;3.40;;;2.70;;
23300;SDS011;11819;51.394;12.340;2022-10-16T04:48:09;4.63;;;3.00;;
23300;SDS011;11819;51.394;12.340;2022-10-16T04:50:34;3.35;;;2.72;;
23300;SDS011;11819;51.394;12.340;2022-10-16T04:53:04;7.32;;;3.25;;
23300;SDS011;11819;51.394;12.340;2022-10-16T04:55:30;5.05;;;3.33;;
23300;SDS011;11819;51.394;12.340;2022-10-16T04:57:55;9.98;;;3.35;;
23300;SDS011;11819;51.394;12.340;2022-10-16T05:00:21;3.95;;;3.00;;
23300;SDS011;11819;51.394;12.340;2022-10-16T05:02:47;5.30;;;3.13;;
23300;SDS011;11819;51.394;12.340;2022-10-16T05:05:14;4.47;;;3.20;;
23300;SDS011;11819;51.394;12.340;2022-10-16T05:07:40;5.25;;;3.03;;
23300;SDS011;11819;51.394;12.340;2022-10-16T05:10:06;4.57;;;2.63;;
23300;SDS011;11819;51.394;12.340;2022-10-16T05:12:32;4.40;;;3.17;;
23300;SDS011;11819;51.394;12.340;2022-10-16T05:14:59;8.57;;;3.30;;
23300;SDS011;11819;51.394;12.340;2022-10-16T05:17:25;8.13;;;3.40;;
23300;SDS011;11819;51.394;12.340;2022-10-16T05:19:51;5.60;;;3.55;;
23300;SDS011;11819;51.394;12.340;2022-10-16T05:22:16;4.75;;;3.38;;
23300;SDS011;11819;51.394;12.340;2022-10-16T05:24:42;6.72;;;3.25;;
23300;SDS011;11819;51.394;12.340;2022-10-16T05:27:08;5.07;;;3.50;;
23300;SDS011;11819;51.394;12.340;2022-10-16T05:29:33;4.75;;;3.25;;
23300;SDS011;11819;51.394;12.340;2022-10-16T05:32:00;6.13;;;3.70;;
23300;SDS011;11819;51.394;12.340;2022-10-16T05:34:25;5.18;;;3.70;;
23300;SDS011;11819;51.394;12.340;2022-10-16T05:36:51;5.03;;;3.38;;
23300;SDS011;11819;51.394;12.340;2022-10-16T05:39:17;7.50;;;3.85;;
23300;SDS011;11819;51.394;12.340;2022-10-16T05:41:43;5.13;;;3.70;;
23300;SDS011;11819;51.394;12.340;2022-10-16T05:44:09;4.88;;;3.42;;
23300;SDS011;11819;51.394;12.340;2022-10-16T05:46:34;6.20;;;3.83;;
23300;SDS011;11819;51.394;12.340;2022-10-16T05:49:00;5.80;;;3.42;;
23300;SDS011;11819;51.394;12.340;2022-10-16T05:51:26;6.38;;;3.85;;
23300;SDS011;11819;51.394;12.340;2022-10-16T05:53:51;5.28;;;3.60;;
23300;SDS011;11819;51.394;12.340;2022-10-16T05:56:17;5.13;;;4.00;;
23300;SDS011;11819;51.394;12.340;2022-10-16T05:58:43;5.40;;;3.90;;
23300;SDS011;11819;51.394;12.340;2022-10-16T06:01:13;6.38;;;4.40;;
23300;SDS011;11819;51.394;12.340;2022-10-16T06:03:43;5.72;;;4.25;;
23300;SDS011;11819;51.394;12.340;2022-10-16T06:06:10;5.68;;;3.72;;
23300;SDS011;11819;51.394;12.340;2022-10-16T06:08:38;5.28;;;4.05;;
23300;SDS011;11819;51.394;12.340;2022-10-16T06:11:05;6.57;;;3.78;;
23300;SDS011;11819;51.394;12.340;2022-10-16T06:13:32;6.75;;;4.05;;
23300;SDS011;11819;51.394;12.340;2022-10-16T06:15:59;5.60;;;3.90;;
23300;SDS011;11819;51.394;12.340;2022-10-16T06:18:26;5.07;;;3.85;;
23300;SDS011;11819;51.394;12.340;2022-10-16T06:20:52;5.07;;;3.83;;
23300;SDS011;11819;51.394;12.340;2022-10-16T06:23:21;7.95;;;4.38;;
23300;SDS011;11819;51.394;12.340;2022-10-16T06:25:47;5.05;;;3.80;;
23300;SDS011;11819;51.394;12.340;2022-10-16T06:28:13;7.65;;;3.70;;
23300;SDS011;11819;51.394;12.340;2022-10-16T06:30:40;6.57;;;4.10;;
23300;SDS011;11819;51.394;12.340;2022-10-16T06:33:06;5.13;;;3.95;;
23300;SDS011;11819;51.394;12.340;2022-10-16T06:35:31;5.00;;;3.72;;
23300;SDS011;11819;51.394;12.340;2022-10-16T06:37:57;7.63;;;3.97;;
23300;SDS011;11819;51.394;12.340;2022-10-16T06:40:23;8.57;;;4.22;;
23300;SDS011;11819;51.394;12.340;2022-10-16T06:42:49;7.30;;;4.40;;
23300;SDS011;11819;51.394;12.340;2022-10-16T06:45:17;5.50;;;3.55;;
23300;SDS011;11819;51.394;12.340;2022-10-16T06:47:42;7.25;;;3.92;;
23300;SDS011;11819;51.394;12.340;2022-10-16T06:50:08;4.93;;;3.75;;
23300;SDS011;11819;51.394;12.340;2022-10-16T06:52:34;8.60;;;4.03;;
23300;SDS011;11819;51.394;12.340;2022-10-16T06:54:59;4.43;;;3.30;;
23300;SDS011;11819;51.394;12.340;2022-10-16T06:57:25;5.07;;;3.50;;
23300;SDS011;11819;51.394;12.340;2022-10-16T06:59:52;5.15;;;3.50;;
23300;SDS011;11819;51.394;12.340;2022-10-16T07:02:18;6.50;;;3.45;;
23300;SDS011;11819;51.394;12.340;2022-10-16T07:04:44;7.50;;;4.03;;
23300;SDS011;11819;51.394;12.340;2022-10-16T07:07:09;5.28;;;3.63;;
23300;SDS011;11819;51.394;12.340;2022-10-16T07:09:35;5.57;;;3.97;;
23300;SDS011;11819;51.394;12.340;2022-10-16T07:12:01;5.22;;;3.90;;
23300;SDS011;11819;51.394;12.340;2022-10-16T07:14:26;6.68;;;3.30;;
23300;SDS011;11819;51.394;12.340;2022-10-16T07:16:52;3.75;;;3.00;;
23300;SDS011;11819;51.394;12.340;2022-10-16T07:19:18;5.63;;;3.20;;
23300;SDS011;11819;51.394;12.340;2022-10-16T07:21:44;5.88;;;3.40;;
23300;SDS011;11819;51.394;12.340;2022-10-16T07:24:13;4.35;;;3.20;;
23300;SDS011;11819;51.394;12.340;2022-10-16T07:26:43;5.40;;;3.03;;
23300;SDS011;11819;51.394;12.340;2022-10-16T07:29:13;4.28;;;3.05;;
23300;SDS011;11819;51.394;12.340;2022-10-16T07:31:41;5.43;;;2.83;;
23300;SDS011;11819;51.394;12.340;2022-10-16T07:34:07;5.35;;;3.00;;
23300;SDS011;11819;51.394;12.340;2022-10-16T07:36:34;5.10;;;3.25;;
23300;SDS011;11819;51.394;12.340;2022-10-16T07:38:59;4.97;;;3.10;;
23300;SDS011;11819;51.394;12.340;2022-10-16T07:41:25;4.93;;;3.08;;
23300;SDS011;11819;51.394;12.340;2022-10-16T07:43:52;4.03;;;2.83;;
23300;SDS011;11819;51.394;12.340;2022-10-16T07:46:18;5.60;;;3.40;;
23300;SDS011;11819;51.394;12.340;2022-10-16T07:48:46;4.40;;;2.70;;
23300;SDS011;11819;51.394;12.340;2022-10-16T07:51:23;5.15;;;2.72;;
23300;SDS011;11819;51.394;12.340;2022-10-16T07:53:49;3.95;;;2.85;;
23300;SDS011;11819;51.394;12.340;2022-10-16T07:56:16;4.22;;;2.95;;
23300;SDS011;11819;51.394;12.340;2022-10-16T07:58:43;4.28;;;2.90;;
23300;SDS011;11819;51.394;12.340;2022-10-16T08:01:10;3.70;;;2.80;;
23300;SDS011;11819;51.394;12.340;2022-10-16T08:03:38;5.43;;;2.70;;
23300;SDS011;11819;51.394;12.340;2022-10-16T08:06:06;5.32;;;2.90;;
23300;SDS011;11819;51.394;12.340;2022-10-16T08:08:32;4.45;;;2.75;;
23300;SDS011;11819;51.394;12.340;2022-10-16T08:10:58;4.25;;;2.75;;
23300;SDS011;11819;51.394;12.340;2022-10-16T08:13:25;3.83;;;2.70;;
23300;SDS011;11819;51.394;12.340;2022-10-16T08:15:51;4.85;;;2.50;;
23300;SDS011;11819;51.394;12.340;2022-10-16T08:18:18;3.08;;;2.42;;
23300;SDS011;11819;51.394;12.340;2022-10-16T08:20:44;3.38;;;2.25;;
23300;SDS011;11819;51.394;12.340;2022-10-16T08:23:13;3.33;;;2.17;;
23300;SDS011;11819;51.394;12.340;2022-10-16T08:25:39;2.92;;;2.08;;
23300;SDS011;11819;51.394;12.340;2022-10-16T08:28:06;3.67;;;2.20;;
23300;SDS011;11819;51.394;12.340;2022-10-16T08:30:33;1.92;;;1.65;;
23300;SDS011;11819;51.394;12.340;2022-10-16T08:32:58;2.38;;;1.70;;
23300;SDS011;11819;51.394;12.340;2022-10-16T08:35:24;2.30;;;1.60;;
23300;SDS011;11819;51.394;12.340;2022-10-16T08:37:50;2.15;;;1.50;;
23300;SDS011;11819;51.394;12.340;2022-10-16T08:50:43;1.52;;;1.40;;
23300;SDS011;11819;51.394;12.340;2022-10-16T08:53:13;1.33;;;1.23;;
23300;SDS011;11819;51.394;12.340;2022-10-16T08:55:43;1.45;;;1.35;;
23300;SDS011;11819;51.394;12.340;2022-10-16T08:58:14;2.88;;;1.65;;
23300;SDS011;11819;51.394;12.340;2022-10-16T09:00:42;2.20;;;1.50;;
23300;SDS011;11819;51.394;12.340;2022-10-16T09:03:22;1.77;;;1.33;;
23300;SDS011;11819;51.394;12.340;2022-10-16T09:06:08;1.60;;;1.45;;
23300;SDS011;11819;51.394;12.340;2022-10-16T09:08:45;2.22;;;1.25;;
23300;SDS011;11819;51.394;12.340;2022-10-16T09:14:48;1.23;;;1.13;;
23300;SDS011;11819;51.394;12.340;2022-10-16T09:20:13;1.35;;;1.25;;
23300;SDS011;11819;51.394;12.340;2022-10-16T09:23:19;1.20;;;1.10;;
23300;SDS011;11819;51.394;12.340;2022-10-16T09:25:46;2.88;;;1.20;;
23300;SDS011;11819;51.394;12.340;2022-10-16T09:28:14;1.00;;;1.00;;
23300;SDS011;11819;51.394;12.340;2022-10-16T09:30:41;1.13;;;1.02;;
23300;SDS011;11819;51.394;12.340;2022-10-16T09:33:09;1.90;;;1.30;;
23300;SDS011;11819;51.394;12.340;2022-10-16T09:35:40;1.27;;;1.15;;
23300;SDS011;11819;51.394;12.340;2022-10-16T09:38:08;1.65;;;1.23;;
23300;SDS011;11819;51.394;12.340;2022-10-16T09:40:46;1.25;;;1.15;;
23300;SDS011;11819;51.394;12.340;2022-10-16T09:46:25;3.83;;;1.50;;
23300;SDS011;11819;51.394;12.340;2022-10-16T09:49:49;1.85;;;1.40;;
23300;SDS011;11819;51.394;12.340;2022-10-16T09:51:48;2.35;;;1.35;;
23300;SDS011;11819;51.394;12.340;2022-10-16T09:54:15;2.05;;;1.83;;
23300;SDS011;11819;51.394;12.340;2022-10-16T09:56:43;1.33;;;1.20;;
23300;SDS011;11819;51.394;12.340;2022-10-16T09:59:17;1.40;;;1.30;;
23300;SDS011;11819;51.394;12.340;2022-10-16T10:01:49;1.60;;;1.50;;
23300;SDS011;11819;51.394;12.340;2022-10-16T10:04:16;1.40;;;1.30;;
23300;SDS011;11819;51.394;12.340;2022-10-16T10:06:47;1.73;;;1.27;;
23300;SDS011;11819;51.394;12.340;2022-10-16T10:09:19;2.22;;;1.50;;
23300;SDS011;11819;51.394;12.340;2022-10-16T10:11:53;2.03;;;1.60;;
23300;SDS011;11819;51.394;12.340;2022-10-16T10:14:20;1.48;;;1.38;;
23300;SDS011;11819;51.394;12.340;2022-10-16T10:16:48;2.83;;;1.55;;
23300;SDS011;11819;51.394;12.340;2022-10-16T10:19:15;1.90;;;1.40;;
23300;SDS011;11819;51.394;12.340;2022-10-16T10:21:43;2.45;;;1.33;;
23300;SDS011;11819;51.394;12.340;2022-10-16T10:24:12;1.42;;;1.33;;
23300;SDS011;11819;51.394;12.340;2022-10-16T10:29:30;2.00;;;1.50;;
23300;SDS011;11819;51.394;12.340;2022-10-16T10:32:52;2.30;;;1.70;;
23300;SDS011;11819;51.394;12.340;2022-10-16T10:38:12;1.88;;;1.67;;
23300;SDS011;11819;51.394;12.340;2022-10-16T10:41:03;2.95;;;1.90;;
23300;SDS011;11819;51.394;12.340;2022-10-16T10:46:12;1.63;;;1.52;;
23300;SDS011;11819;51.394;12.340;2022-10-16T10:51:22;2.80;;;1.90;;
23300;SDS011;11819;51.394;12.340;2022-10-16T10:54:09;2.50;;;1.98;;
23300;SDS011;11819;51.394;12.340;2022-10-16T10:56:47;2.00;;;1.80;;
23300;SDS011;11819;51.394;12.340;2022-10-16T11:02:12;2.70;;;2.05;;
23300;SDS011;11819;51.394;12.340;2022-10-16T11:07:57;4.00;;;2.20;;
23300;SDS011;11819;51.394;12.340;2022-10-16T11:10:27;2.30;;;2.10;;
23300;SDS011;11819;51.394;12.340;2022-10-16T11:12:59;2.33;;;2.10;;
23300;SDS011;11819;51.394;12.340;2022-10-16T11:15:47;2.67;;;2.00;;
23300;SDS011;11819;51.394;12.340;2022-10-16T11:18:19;2.03;;;1.70;;
23300;SDS011;11819;51.394;12.340;2022-10-16T11:21:00;2.35;;;1.73;;
23300;SDS011;11819;51.394;12.340;2022-10-16T11:26:25;2.17;;;1.90;;
23300;SDS011;11819;51.394;12.340;2022-10-16T11:28:54;2.33;;;2.00;;
23300;SDS011;11819;51.394;12.340;2022-10-16T11:36:26;2.40;;;2.00;;
23300;SDS011;11819;51.394;12.340;2022-10-16T11:39:11;1.70;;;1.60;;
23300;SDS011;11819;51.394;12.340;2022-10-16T11:41:47;2.58;;;2.10;;
23300;SDS011;11819;51.394;12.340;2022-10-16T11:47:33;2.00;;;1.80;;
23300;SDS011;11819;51.394;12.340;2022-10-16T11:55:44;3.85;;;1.95;;
23300;SDS011;11819;51.394;12.340;2022-10-16T12:01:16;3.13;;;2.05;;
23300;SDS011;11819;51.394;12.340;2022-10-16T12:04:12;2.92;;;1.90;;
23300;SDS011;11819;51.394;12.340;2022-10-16T12:07:26;5.75;;;3.05;;
23300;SDS011;11819;51.394;12.340;2022-10-16T12:09:36;2.50;;;1.95;;
23300;SDS011;11819;51.394;12.340;2022-10-16T12:12:03;3.22;;;2.00;;
23300;SDS011;11819;51.394;12.340;2022-10-16T12:14:34;2.67;;;2.00;;
23300;SDS011;11819;51.394;12.340;2022-10-16T12:17:03;2.75;;;2.17;;
23300;SDS011;11819;51.394;12.340;2022-10-16T12:20:53;2.83;;;1.80;;
23300;SDS011;11819;51.394;12.340;2022-10-16T12:22:53;2.15;;;1.83;;
23300;SDS011;11819;51.394;12.340;2022-10-16T12:25:22;4.25;;;2.47;;
23300;SDS011;11819;51.394;12.340;2022-10-16T12:28:06;3.13;;;2.50;;
23300;SDS011;11819;51.394;12.340;2022-10-16T12:30:53;5.03;;;2.45;;
23300;SDS011;11819;51.394;12.340;2022-10-16T12:33:24;4.60;;;2.35;;
23300;SDS011;11819;51.394;12.340;2022-10-16T12:35:52;3.40;;;2.40;;
23300;SDS011;11819;51.394;12.340;2022-10-16T12:38:37;3.10;;;2.42;;
23300;SDS011;11819;51.394;12.340;2022-10-16T12:41:12;3.20;;;2.20;;
23300;SDS011;11819;51.394;12.340;2022-10-16T12:43:50;2.22;;;1.80;;
23300;SDS011;11819;51.394;12.340;2022-10-16T12:48:42;1.58;;;1.45;;
23300;SDS011;11819;51.394;12.340;2022-10-16T12:51:21;2.60;;;1.80;;
23300;SDS011;11819;51.394;12.340;2022-10-16T13:07:55;2.17;;;1.60;;
23300;SDS011;11819;51.394;12.340;2022-10-16T13:18:29;2.60;;;1.60;;
23300;SDS011;11819;51.394;12.340;2022-10-16T13:21:03;1.50;;;1.40;;
23300;SDS011;11819;51.394;12.340;2022-10-16T13:28:59;2.97;;;1.73;;
23300;SDS011;11819;51.394;12.340;2022-10-16T13:31:26;3.00;;;1.70;;
23300;SDS011;11819;51.394;12.340;2022-10-16T13:33:55;3.83;;;1.77;;
23300;SDS011;11819;51.394;12.340;2022-10-16T13:41:37;1.50;;;1.40;;
23300;SDS011;11819;51.394;12.340;2022-10-16T13:44:03;1.67;;;1.50;;
23300;SDS011;11819;51.394;12.340;2022-10-16T13:46:30;1.50;;;1.35;;
23300;SDS011;11819;51.394;12.340;2022-10-16T13:49:03;2.45;;;1.45;;
23300;SDS011;11819;51.394;12.340;2022-10-16T13:51:30;2.13;;;1.50;;
23300;SDS011;11819;51.394;12.340;2022-10-16T13:53:57;2.55;;;1.70;;
23300;SDS011;11819;51.394;12.340;2022-10-16T13:56:30;2.72;;;1.50;;
23300;SDS011;11819;51.394;12.340;2022-10-16T13:59:01;1.83;;;1.60;;
23300;SDS011;11819;51.394;12.340;2022-10-16T14:01:33;3.55;;;1.80;;
23300;SDS011;11819;51.394;12.340;2022-10-16T14:04:06;1.73;;;1.60;;
23300;SDS011;11819;51.394;12.340;2022-10-16T14:06:33;1.95;;;1.52;;
23300;SDS011;11819;51.394;12.340;2022-10-16T14:09:02;1.73;;;1.50;;
23300;SDS011;11819;51.394;12.340;2022-10-16T14:11:36;1.70;;;1.60;;
23300;SDS011;11819;51.394;12.340;2022-10-16T14:14:11;1.95;;;1.70;;
23300;SDS011;11819;51.394;12.340;2022-10-16T14:16:37;2.25;;;1.88;;
23300;SDS011;11819;51.394;12.340;2022-10-16T14:19:06;3.35;;;1.95;;
23300;SDS011;11819;51.394;12.340;2022-10-16T14:21:39;2.80;;;2.17;;
23300;SDS011;11819;51.394;12.340;2022-10-16T14:24:12;2.35;;;2.00;;
23300;SDS011;11819;51.394;12.340;2022-10-16T14:26:43;2.78;;;2.03;;
23300;SDS011;11819;51.394;12.340;2022-10-16T14:29:17;2.58;;;1.90;;
23300;SDS011;11819;51.394;12.340;2022-10-16T14:31:54;2.53;;;2.05;;
23300;SDS011;11819;51.394;12.340;2022-10-16T14:34:35;2.30;;;1.80;;
23300;SDS011;11819;51.394;12.340;2022-10-16T14:37:27;2.75;;;2.08;;
23300;SDS011;11819;51.394;12.340;2022-10-16T14:39:54;2.10;;;1.80;;
23300;SDS011;11819;51.394;12.340;2022-10-16T14:42:21;2.65;;;2.00;;
23300;SDS011;11819;51.394;12.340;2022-10-16T14:44:50;2.97;;;2.00;;
23300;SDS011;11819;51.394;12.340;2022-10-16T14:47:21;2.92;;;2.10;;
23300;SDS011;11819;51.394;12.340;2022-10-16T14:49:51;3.10;;;2.40;;
23300;SDS011;11819;51.394;12.340;2022-10-16T14:52:20;3.40;;;2.38;;
23300;SDS011;11819;51.394;12.340;2022-10-16T14:54:49;3.33;;;2.17;;
23300;SDS011;11819;51.394;12.340;2022-10-16T14:57:18;4.00;;;2.08;;
23300;SDS011;11819;51.394;12.340;2022-10-16T14:59:46;2.70;;;2.20;;
23300;SDS011;11819;51.394;12.340;2022-10-16T15:02:25;3.03;;;2.17;;
23300;SDS011;11819;51.394;12.340;2022-10-16T15:04:57;2.92;;;2.20;;
23300;SDS011;11819;51.394;12.340;2022-10-16T15:07:27;2.80;;;2.10;;
23300;SDS011;11819;51.394;12.340;2022-10-16T15:09:53;2.33;;;2.10;;
23300;SDS011;11819;51.394;12.340;2022-10-16T15:12:18;3.00;;;2.30;;
23300;SDS011;11819;51.394;12.340;2022-10-16T15:14:44;4.13;;;2.30;;
23300;SDS011;11819;51.394;12.340;2022-10-16T15:17:10;3.85;;;2.78;;
23300;SDS011;11819;51.394;12.340;2022-10-16T15:19:36;9.45;;;4.30;;
23300;SDS011;11819;51.394;12.340;2022-10-16T15:22:02;14.68;;;8.95;;
23300;SDS011;11819;51.394;12.340;2022-10-16T15:24:28;9.38;;;6.22;;
23300;SDS011;11819;51.394;12.340;2022-10-16T15:26:53;5.93;;;4.28;;
23300;SDS011;11819;51.394;12.340;2022-10-16T15:29:19;5.18;;;3.55;;
23300;SDS011;11819;51.394;12.340;2022-10-16T15:31:45;4.88;;;3.10;;
23300;SDS011;11819;51.394;12.340;2022-10-16T15:34:12;5.18;;;3.15;;
23300;SDS011;11819;51.394;12.340;2022-10-16T15:36:38;5.43;;;3.20;;
23300;SDS011;11819;51.394;12.340;2022-10-16T15:39:05;3.85;;;3.17;;
23300;SDS011;11819;51.394;12.340;2022-10-16T15:41:37;8.23;;;3.72;;
23300;SDS011;11819;51.394;12.340;2022-10-16T15:44:03;4.40;;;2.95;;
23300;SDS011;11819;51.394;12.340;2022-10-16T15:46:28;6.35;;;3.60;;
23300;SDS011;11819;51.394;12.340;2022-10-16T15:48:56;6.35;;;4.03;;
23300;SDS011;11819;51.394;12.340;2022-10-16T15:51:23;5.47;;;3.97;;
23300;SDS011;11819;51.394;12.340;2022-10-16T15:53:49;6.35;;;4.10;;
23300;SDS011;11819;51.394;12.340;2022-10-16T15:56:16;5.65;;;3.45;;
23300;SDS011;11819;51.394;12.340;2022-10-16T15:58:42;4.45;;;3.30;;
23300;SDS011;11819;51.394;12.340;2022-10-16T16:01:08;5.97;;;3.45;;
23300;SDS011;11819;51.394;12.340;2022-10-16T16:03:35;6.05;;;3.30;;
23300;SDS011;11819;51.394;12.340;2022-10-16T16:06:05;5.57;;;3.70;;
23300;SDS011;11819;51.394;12.340;2022-10-16T16:08:33;7.55;;;4.07;;
23300;SDS011;11819;51.394;12.340;2022-10-16T16:10:59;5.80;;;3.88;;
23300;SDS011;11819;51.394;12.340;2022-10-16T16:13:25;6.00;;;4.22;;
23300;SDS011;11819;51.394;12.340;2022-10-16T16:15:51;7.68;;;5.63;;
23300;SDS011;11819;51.394;12.340;2022-10-16T16:18:17;9.25;;;5.45;;
23300;SDS011;11819;51.394;12.340;2022-10-16T16:20:43;7.90;;;5.07;;
23300;SDS011;11819;51.394;12.340;2022-10-16T16:23:08;6.05;;;4.32;;
23300;SDS011;11819;51.394;12.340;2022-10-16T16:25:34;10.68;;;4.70;;
23300;SDS011;11819;51.394;12.340;2022-10-16T16:28:00;7.45;;;4.40;;
23300;SDS011;11819;51.394;12.340;2022-10-16T16:30:25;8.48;;;5.53;;
23300;SDS011;11819;51.394;12.340;2022-10-16T16:32:51;6.80;;;4.55;;
23300;SDS011;11819;51.394;12.340;2022-10-16T16:35:17;7.32;;;5.00;;